createdAt,value
2018-02-04T12:35:48.128Z,1014.9
2018-02-04T12:36:49.529Z,1014.9
2018-02-04T12:38:11.498Z,1014.9
2018-02-04T12:39:12.899Z,1015.0
2018-02-04T12:40:34.873Z,1014.9
2018-02-04T12:41:36.266Z,1014.9
2018-02-04T12:42:58.226Z,1015.0
2018-02-04T12:43:59.624Z,1015.0
2018-02-04T12:45:21.562Z,1015.0
2018-02-04T12:46:22.966Z,1015.0
2018-02-04T12:47:44.939Z,1015.0
2018-02-04T12:48:46.340Z,1015.0
2018-02-04T12:50:08.285Z,1015.0
2018-02-04T12:51:09.685Z,1015.0
2018-02-04T12:52:11.364Z,1015.0
2018-02-04T12:53:13.299Z,1015.1
2018-02-04T12:54:14.860Z,1015.1
2018-02-04T12:55:16.271Z,1015.1
2018-02-04T12:56:17.925Z,1015.1
2018-02-04T12:57:19.327Z,1015.1
2018-02-04T12:58:21.040Z,1015.1
2018-02-04T12:59:22.451Z,1015.1
2018-02-04T13:00:24.097Z,1015.1
2018-02-04T13:01:25.495Z,1015.1
2018-02-04T13:02:26.898Z,1015.2
2018-02-04T13:03:28.424Z,1015.2
2018-02-04T13:04:29.831Z,1015.2
2018-02-04T13:05:31.232Z,1015.1
2018-02-04T13:06:32.956Z,1015.2
2018-02-04T13:07:34.363Z,1015.2
2018-02-04T13:08:35.771Z,1015.2
2018-02-04T13:09:38.496Z,1015.1
2018-02-04T13:10:39.927Z,1015.2
2018-02-04T13:11:41.321Z,1015.2
2018-02-04T13:12:43.052Z,1015.1
2018-02-04T13:13:44.461Z,1015.1
2018-02-04T13:14:45.852Z,1015.2
2018-02-04T13:15:47.553Z,1015.2
2018-02-04T13:16:49.018Z,1015.2
2018-02-04T13:17:50.419Z,1015.1
2018-02-04T13:18:52.118Z,1015.1
2018-02-04T13:19:53.913Z,1015.2
2018-02-04T13:20:55.313Z,1015.2
2018-02-04T13:21:57.011Z,1015.2
2018-02-04T13:22:58.450Z,1015.2
2018-02-04T13:23:59.853Z,1015.3
2018-02-04T13:25:01.588Z,1015.2
2018-02-04T13:26:03.013Z,1015.2
2018-02-04T13:27:04.619Z,1015.2
2018-02-04T13:28:06.024Z,1015.3
2018-02-04T13:29:08.323Z,1015.3
2018-02-04T13:30:09.652Z,1015.2
2018-02-04T13:31:11.202Z,1015.3
2018-02-04T13:32:12.612Z,1015.3
2018-02-04T13:33:14.043Z,1015.3
2018-02-04T13:34:15.724Z,1015.3
2018-02-04T13:35:17.141Z,1015.3
2018-02-04T13:36:19.460Z,1015.3
2018-02-04T13:37:21.072Z,1015.2
2018-02-04T13:38:22.530Z,1015.3
2018-02-04T13:39:23.941Z,1015.3
2018-02-04T13:40:25.634Z,1015.3
2018-02-04T13:41:27.045Z,1015.5
2018-02-04T13:42:28.461Z,1015.4
2018-02-04T13:43:30.129Z,1015.4
2018-02-04T13:44:31.530Z,1015.3
2018-02-04T13:45:32.931Z,1015.3
2018-02-04T13:46:34.653Z,1015.4
2018-02-04T13:47:36.071Z,1015.3
2018-02-04T13:48:37.469Z,1015.3
2018-02-04T13:49:39.183Z,1015.3
2018-02-04T13:50:40.595Z,1015.4
2018-02-04T13:51:42.010Z,1015.3
2018-02-04T13:52:44.726Z,1015.4
2018-02-04T13:53:46.132Z,1015.3
2018-02-04T13:54:49.659Z,1015.3
2018-02-04T13:55:51.095Z,1015.4
2018-02-04T13:56:52.741Z,1015.4
2018-02-04T13:57:54.157Z,1015.4
2018-02-04T13:58:55.841Z,1015.4
2018-02-04T13:59:57.245Z,1015.4
2018-02-04T14:00:58.917Z,1015.4
2018-02-04T14:02:00.331Z,1015.5
2018-02-04T14:03:02.052Z,1015.5
2018-02-04T14:04:03.465Z,1015.4
2018-02-04T14:05:04.874Z,1015.4
2018-02-04T14:06:06.522Z,1015.5
2018-02-04T14:07:07.927Z,1015.5
2018-02-04T14:08:09.361Z,1015.5
2018-02-04T14:09:10.770Z,1015.5
2018-02-04T14:10:12.353Z,1015.4
2018-02-04T14:11:13.776Z,1015.4
2018-02-04T14:12:15.372Z,1015.5
2018-02-04T14:13:16.782Z,1015.5
2018-02-04T14:14:18.458Z,1015.5
2018-02-04T14:15:19.898Z,1015.4
2018-02-04T14:16:21.558Z,1015.4
2018-02-04T14:17:23.483Z,1015.5
2018-02-04T14:18:25.054Z,1015.5
2018-02-04T14:19:26.446Z,1015.5
2018-02-04T14:20:29.315Z,1015.5
2018-02-04T14:21:31.395Z,1015.6
2018-02-04T14:22:33.439Z,1015.6
2018-02-04T14:23:36.815Z,1015.6
2018-02-04T14:24:38.913Z,1015.6
2018-02-04T14:25:40.905Z,1015.6
2018-02-04T14:26:42.630Z,1015.6
2018-02-04T14:27:44.028Z,1015.6
2018-02-04T14:28:45.446Z,1015.7
2018-02-04T14:29:47.047Z,1015.7
2018-02-04T14:30:48.449Z,1015.7
2018-02-04T14:31:49.846Z,1015.7
2018-02-04T14:32:51.548Z,1015.7
2018-02-04T14:33:52.955Z,1015.7
2018-02-04T14:34:54.364Z,1015.7
2018-02-04T14:35:56.046Z,1015.7
2018-02-04T14:36:57.491Z,1015.7
2018-02-04T14:37:59.170Z,1015.8
2018-02-04T14:39:00.563Z,1015.9
2018-02-04T14:40:02.634Z,1015.8
2018-02-04T14:41:04.925Z,1015.8
2018-02-04T14:42:06.562Z,1015.8
2018-02-04T14:43:08.035Z,1015.8
2018-02-04T14:44:10.773Z,1015.9
2018-02-04T14:45:12.223Z,1015.9
2018-02-04T14:46:13.815Z,1015.8
2018-02-04T14:47:15.230Z,1015.9
2018-02-04T14:48:16.969Z,1015.9
2018-02-04T14:49:18.388Z,1015.9
2018-02-04T14:50:19.928Z,1015.9
2018-02-04T14:51:21.349Z,1015.9
2018-02-04T14:52:23.042Z,1015.9
2018-02-04T14:53:24.439Z,1015.9
2018-02-04T14:54:26.122Z,1015.9
2018-02-04T14:55:27.511Z,1016.0
2018-02-04T14:56:30.007Z,1016.0
2018-02-04T14:57:31.632Z,1015.9
2018-02-04T14:58:33.302Z,1015.9
2018-02-04T14:59:35.089Z,1015.9
2018-02-04T15:00:36.791Z,1015.9
2018-02-04T15:01:39.107Z,1016.0
2018-02-04T15:02:40.721Z,1016.0
2018-02-04T15:03:42.089Z,1016.0
2018-02-04T15:04:43.562Z,1016.0
2018-02-04T15:05:45.220Z,1016.0
2018-02-04T15:06:46.626Z,1016.0
2018-02-04T15:07:48.017Z,1016.0
2018-02-04T15:08:49.540Z,1015.9
2018-02-04T15:09:50.937Z,1016.0
2018-02-04T15:10:52.625Z,1016.0
2018-02-04T15:11:54.055Z,1016.1
2018-02-04T15:12:55.714Z,1016.1
2018-02-04T15:13:57.148Z,1016.1
2018-02-04T15:14:58.547Z,1016.1
2018-02-04T15:16:00.254Z,1016.2
2018-02-04T15:17:01.809Z,1016.2
2018-02-04T15:18:03.241Z,1016.2
2018-02-04T15:19:04.795Z,1016.2
2018-02-04T15:20:06.204Z,1016.2
2018-02-04T15:21:07.996Z,1016.2
2018-02-04T15:22:09.502Z,1016.2
2018-02-04T15:23:10.896Z,1016.2
2018-02-04T15:24:12.299Z,1016.3
2018-02-04T15:25:14.231Z,1016.3
2018-02-04T15:26:15.628Z,1016.3
2018-02-04T15:27:17.027Z,1016.3
2018-02-04T15:28:18.545Z,1016.3
2018-02-04T15:29:19.942Z,1016.3
2018-02-04T15:30:21.338Z,1016.3
2018-02-04T15:31:22.874Z,1016.3
2018-02-04T15:32:24.281Z,1016.3
2018-02-04T15:33:25.678Z,1016.3
2018-02-04T15:34:27.187Z,1016.4
2018-02-04T15:35:28.586Z,1016.4
2018-02-04T15:36:30.274Z,1016.4
2018-02-04T15:37:39.493Z,1016.4
2018-02-04T15:38:40.889Z,1016.4
2018-02-04T15:40:02.893Z,1016.4
2018-02-04T15:41:04.290Z,1016.4
2018-02-04T15:42:26.626Z,1016.4
2018-02-04T15:43:28.022Z,1016.4
2018-02-04T15:44:29.714Z,1016.4
2018-02-04T15:45:31.110Z,1016.4
2018-02-04T15:46:32.891Z,1016.4
2018-02-04T15:47:34.455Z,1016.5
2018-02-04T15:48:35.848Z,1016.5
2018-02-04T15:49:37.629Z,1016.5
2018-02-04T15:50:39.555Z,1016.6
2018-02-04T15:51:41.332Z,1016.5
2018-02-04T15:52:42.872Z,1016.5
2018-02-04T15:53:44.272Z,1016.6
2018-02-04T15:54:45.673Z,1016.6
2018-02-04T15:55:47.197Z,1016.6
2018-02-04T15:56:48.600Z,1016.6
2018-02-04T15:57:49.996Z,1016.6
2018-02-04T15:58:51.519Z,1016.6
2018-02-04T15:59:52.917Z,1016.6
2018-02-04T16:00:54.317Z,1016.6
2018-02-04T16:01:55.839Z,1016.6
2018-02-04T16:02:57.258Z,1016.6
2018-02-04T16:03:58.925Z,1016.7
2018-02-04T16:05:00.327Z,1016.6
2018-02-04T16:06:02.010Z,1016.7
2018-02-04T16:07:03.407Z,1016.6
2018-02-04T16:08:05.483Z,1016.6
2018-02-04T16:09:06.881Z,1016.6
2018-02-04T16:10:08.388Z,1016.7
2018-02-04T16:11:09.785Z,1016.8
2018-02-04T16:12:11.475Z,1016.7
2018-02-04T16:13:12.868Z,1016.7
2018-02-04T16:14:14.558Z,1016.8
2018-02-04T16:15:15.953Z,1016.7
2018-02-04T16:16:17.657Z,1016.8
2018-02-04T16:17:19.081Z,1016.7
2018-02-04T16:18:20.728Z,1016.7
2018-02-04T16:19:22.124Z,1016.8
2018-02-04T16:20:23.526Z,1016.8
2018-02-04T16:21:25.049Z,1016.7
2018-02-04T16:22:26.470Z,1016.7
2018-02-04T16:23:27.869Z,1016.8
2018-02-04T16:24:29.370Z,1016.8
2018-02-04T16:25:30.773Z,1016.8
2018-02-04T16:26:32.172Z,1016.8
2018-02-04T16:27:33.690Z,1016.8
2018-02-04T16:28:35.099Z,1016.8
2018-02-04T16:29:36.508Z,1016.8
2018-02-04T16:30:38.015Z,1016.8
2018-02-04T16:31:39.409Z,1016.9
2018-02-04T16:32:41.096Z,1016.8
2018-02-04T16:33:42.493Z,1016.8
2018-02-04T16:34:44.188Z,1016.8
2018-02-04T16:35:45.585Z,1016.8
2018-02-04T16:36:46.982Z,1016.8
2018-02-04T16:37:48.503Z,1016.8
2018-02-04T16:38:49.900Z,1016.9
2018-02-04T16:39:51.302Z,1016.9
2018-02-04T16:40:52.822Z,1016.9
2018-02-04T16:41:54.226Z,1016.8
2018-02-04T16:42:55.951Z,1016.9
2018-02-04T16:43:57.383Z,1016.9
2018-02-04T16:44:59.063Z,1016.9
2018-02-04T16:46:00.446Z,1016.9
2018-02-04T16:47:01.846Z,1016.9
2018-02-04T16:48:03.524Z,1016.8
2018-02-04T16:49:04.935Z,1016.9
2018-02-04T16:50:06.340Z,1016.9
2018-02-04T16:51:07.858Z,1016.9
2018-02-04T16:52:09.257Z,1016.9
2018-02-04T16:53:10.940Z,1016.9
2018-02-04T16:54:12.337Z,1017.0
2018-02-04T16:55:14.016Z,1016.9
2018-02-04T16:56:15.414Z,1017.0
2018-02-04T16:57:17.105Z,1017.0
2018-02-04T16:58:18.503Z,1016.9
2018-02-04T16:59:20.192Z,1016.9
2018-02-04T17:00:21.593Z,1016.9
2018-02-04T17:01:22.987Z,1016.9
2018-02-04T17:02:24.509Z,1016.9
2018-02-04T17:03:26.539Z,1016.9
2018-02-04T17:04:27.936Z,1017.0
2018-02-04T17:05:29.446Z,1017.0
2018-02-04T17:06:30.974Z,1017.0
2018-02-04T17:07:33.138Z,1017.0
2018-02-04T17:08:34.585Z,1017.0
2018-02-04T17:09:35.983Z,1017.0
2018-02-04T17:10:37.383Z,1017.0
2018-02-04T17:11:38.904Z,1017.0
2018-02-04T17:12:40.370Z,1017.1
2018-02-04T17:13:42.478Z,1017.1
2018-02-04T17:14:43.910Z,1017.0
2018-02-04T17:15:45.691Z,1017.0
2018-02-04T17:16:47.083Z,1017.0
2018-02-04T17:17:48.483Z,1017.1
2018-02-04T17:18:50.023Z,1017.1
2018-02-04T17:19:51.416Z,1017.1
2018-02-04T17:20:52.813Z,1017.2
2018-02-04T17:21:54.331Z,1017.2
2018-02-04T17:22:55.734Z,1017.2
2018-02-04T17:23:57.438Z,1017.2
2018-02-04T17:24:58.841Z,1017.1
2018-02-04T17:26:00.506Z,1017.1
2018-02-04T17:27:01.901Z,1017.2
2018-02-04T17:28:03.618Z,1017.2
2018-02-04T17:29:04.950Z,1017.2
2018-02-04T17:30:06.473Z,1017.2
2018-02-04T17:31:08.309Z,1017.2
2018-02-04T17:32:09.706Z,1017.2
2018-02-04T17:33:11.595Z,1017.2
2018-02-04T17:34:12.992Z,1017.2
2018-02-04T17:35:14.395Z,1017.2
2018-02-04T17:36:15.938Z,1017.2
2018-02-04T17:37:17.334Z,1017.2
2018-02-04T17:38:19.025Z,1017.2
2018-02-04T17:39:20.428Z,1017.3
2018-02-04T17:40:22.109Z,1017.3
2018-02-04T17:41:23.517Z,1017.3
2018-02-04T17:42:25.197Z,1017.2
2018-02-04T17:43:26.606Z,1017.3
2018-02-04T17:44:28.272Z,1017.2
2018-02-04T17:45:29.668Z,1017.2
2018-02-04T17:46:31.158Z,1017.2
2018-02-04T17:47:32.554Z,1017.3
2018-02-04T17:48:34.257Z,1017.3
2018-02-04T17:49:35.703Z,1017.3
2018-02-04T17:50:37.325Z,1017.3
2018-02-04T17:51:38.725Z,1017.3
2018-02-04T17:52:40.420Z,1017.3
2018-02-04T17:53:41.829Z,1017.3
2018-02-04T17:54:43.501Z,1017.4
2018-02-04T17:55:44.895Z,1017.4
2018-02-04T17:56:46.584Z,1017.4
2018-02-04T17:57:47.982Z,1017.5
2018-02-04T17:58:49.670Z,1017.4
2018-02-04T17:59:51.067Z,1017.4
2018-02-04T18:00:52.552Z,1017.5
2018-02-04T18:01:53.950Z,1017.5
2018-02-04T18:02:55.357Z,1017.5
2018-02-04T18:03:56.875Z,1017.5
2018-02-04T18:04:58.272Z,1017.5
2018-02-04T18:05:59.698Z,1017.5
2018-02-04T18:07:01.192Z,1017.5
2018-02-04T18:08:02.589Z,1017.6
2018-02-04T18:09:04.072Z,1017.5
2018-02-04T18:10:05.472Z,1017.5
2018-02-04T18:11:06.952Z,1017.5
2018-02-04T18:12:08.354Z,1017.5
2018-02-04T18:13:10.038Z,1017.5
2018-02-04T18:14:11.434Z,1017.5
2018-02-04T18:15:12.921Z,1017.6
2018-02-04T18:16:14.319Z,1017.6
2018-02-04T18:17:15.799Z,1017.6
2018-02-04T18:18:17.197Z,1017.6
2018-02-04T18:19:18.822Z,1017.7
2018-02-04T18:20:20.181Z,1017.7
2018-02-04T18:21:21.763Z,1017.7
2018-02-04T18:22:23.163Z,1017.8
2018-02-04T18:23:24.584Z,1017.7
2018-02-04T18:24:26.576Z,1017.8
2018-02-04T18:25:27.972Z,1017.8
2018-02-04T18:26:29.371Z,1017.8
2018-02-04T18:27:31.026Z,1017.8
2018-02-04T18:28:32.418Z,1017.9
2018-02-04T18:29:33.906Z,1017.8
2018-02-04T18:30:35.307Z,1017.8
2018-02-04T18:31:36.784Z,1017.8
2018-02-04T18:32:38.179Z,1017.8
2018-02-04T18:33:39.654Z,1017.8
2018-02-04T18:34:41.310Z,1017.8
2018-02-04T18:35:42.704Z,1017.9
2018-02-04T18:36:44.105Z,1017.9
2018-02-04T18:37:45.638Z,1017.9
2018-02-04T18:38:47.025Z,1017.9
2018-02-04T18:39:48.512Z,1018.0
2018-02-04T18:40:49.907Z,1017.9
2018-02-04T18:41:51.393Z,1017.9
2018-02-04T18:42:52.786Z,1018.0
2018-02-04T18:43:54.325Z,1018.0
2018-02-04T18:44:55.736Z,1018.0
2018-02-04T18:45:57.363Z,1018.0
2018-02-04T18:46:58.761Z,1018.0
2018-02-04T18:48:00.240Z,1018.0
2018-02-04T18:49:01.769Z,1018.0
2018-02-04T18:50:03.327Z,1018.1
2018-02-04T18:51:04.723Z,1018.1
2018-02-04T18:52:06.204Z,1018.0
2018-02-04T18:53:07.607Z,1018.1
2018-02-04T18:54:08.999Z,1018.1
2018-02-04T18:55:10.527Z,1018.1
2018-02-04T18:56:11.928Z,1018.1
2018-02-04T18:57:13.324Z,1018.1
2018-02-04T18:58:14.858Z,1018.1
2018-02-04T18:59:16.268Z,1018.1
2018-02-04T19:00:17.662Z,1018.2
2018-02-04T19:01:19.170Z,1018.2
2018-02-04T19:02:20.568Z,1018.2
2018-02-04T19:03:21.963Z,1018.2
2018-02-04T19:04:23.492Z,1018.2
2018-02-04T19:05:25.103Z,1018.2
2018-02-04T19:06:26.726Z,1018.2
2018-02-04T19:07:28.781Z,1018.2
2018-02-04T19:08:30.172Z,1018.2
2018-02-04T19:09:31.717Z,1018.2
2018-02-04T19:10:33.115Z,1018.3
2018-02-04T19:11:34.511Z,1018.3
2018-02-04T19:12:36.040Z,1018.3
2018-02-04T19:13:37.434Z,1018.2
2018-02-04T19:14:38.919Z,1018.2
2018-02-04T19:15:40.317Z,1018.2
2018-02-04T19:16:42.059Z,1018.2
2018-02-04T19:17:43.458Z,1018.3
2018-02-04T19:18:45.090Z,1018.3
2018-02-04T19:19:46.483Z,1018.4
2018-02-04T19:20:47.970Z,1018.3
2018-02-04T19:21:49.365Z,1018.3
2018-02-04T19:22:50.852Z,1018.4
2018-02-04T19:23:52.244Z,1018.3
2018-02-04T19:24:53.733Z,1018.4
2018-02-04T19:25:55.133Z,1018.4
2018-02-04T19:26:56.788Z,1018.5
2018-02-04T19:27:58.194Z,1018.5
2018-02-04T19:28:59.704Z,1018.4
2018-02-04T19:30:01.107Z,1018.5
2018-02-04T19:31:02.583Z,1018.5
2018-02-04T19:32:03.988Z,1018.4
2018-02-04T19:33:05.390Z,1018.5
2018-02-04T19:34:07.109Z,1018.5
2018-02-04T19:35:08.522Z,1018.5
2018-02-04T19:36:09.908Z,1018.5
2018-02-04T19:37:11.431Z,1018.5
2018-02-04T19:38:12.833Z,1018.5
2018-02-04T19:39:14.242Z,1018.5
2018-02-04T19:40:15.753Z,1018.5
2018-02-04T19:41:17.155Z,1018.5
2018-02-04T19:42:18.553Z,1018.6
2018-02-04T19:43:20.103Z,1018.5
2018-02-04T19:44:21.498Z,1018.5
2018-02-04T19:45:23.159Z,1018.6
2018-02-04T19:46:24.595Z,1018.7
2018-02-04T19:47:26.277Z,1018.6
2018-02-04T19:48:27.677Z,1018.6
2018-02-04T19:49:29.330Z,1018.6
2018-02-04T19:50:30.728Z,1018.7
2018-02-04T19:51:32.399Z,1018.6
2018-02-04T19:52:33.797Z,1018.6
2018-02-04T19:53:35.296Z,1018.6
2018-02-04T19:54:36.699Z,1018.6
2018-02-04T19:55:38.175Z,1018.6
2018-02-04T19:56:39.577Z,1018.7
2018-02-04T19:57:41.123Z,1018.7
2018-02-04T19:58:42.594Z,1018.7
2018-02-04T19:59:44.144Z,1018.6
2018-02-04T20:00:45.546Z,1018.7
2018-02-04T20:01:47.025Z,1018.6
2018-02-04T20:02:48.425Z,1018.7
2018-02-04T20:03:49.904Z,1018.7
2018-02-04T20:04:51.307Z,1018.7
2018-02-04T20:05:52.788Z,1018.6
2018-02-04T20:06:54.189Z,1018.6
2018-02-04T20:07:55.871Z,1018.6
2018-02-04T20:08:57.267Z,1018.6
2018-02-04T20:09:58.753Z,1018.6
2018-02-04T20:11:00.200Z,1018.7
2018-02-04T20:12:01.838Z,1018.7
2018-02-04T20:13:03.257Z,1018.7
2018-02-04T20:14:04.657Z,1018.7
2018-02-04T20:15:06.158Z,1018.8
2018-02-04T20:16:07.562Z,1018.8
2018-02-04T20:17:08.963Z,1018.8
2018-02-04T20:18:10.501Z,1018.8
2018-02-04T20:19:11.900Z,1018.8
2018-02-04T20:20:13.301Z,1018.8
2018-02-04T20:21:14.821Z,1018.9
2018-02-04T20:22:16.225Z,1018.8
2018-02-04T20:23:17.630Z,1018.9
2018-02-04T20:24:19.134Z,1018.8
2018-02-04T20:25:20.612Z,1018.8
2018-02-04T20:26:22.007Z,1018.8
2018-02-04T20:27:23.649Z,1018.9
2018-02-04T20:28:25.051Z,1018.8
2018-02-04T20:29:26.446Z,1018.8
2018-02-04T20:30:27.972Z,1018.8
2018-02-04T20:31:29.368Z,1018.9
2018-02-04T20:32:30.783Z,1018.9
2018-02-04T20:33:32.294Z,1018.9
2018-02-04T20:34:33.687Z,1018.9
2018-02-04T20:35:35.173Z,1018.9
2018-02-04T20:36:36.581Z,1018.9
2018-02-04T20:37:38.053Z,1018.9
2018-02-04T20:38:39.451Z,1018.9
2018-02-04T20:39:40.937Z,1018.9
2018-02-04T20:40:42.329Z,1018.9
2018-02-04T20:41:43.818Z,1018.9
2018-02-04T20:42:45.219Z,1019.0
2018-02-04T20:43:46.698Z,1019.0
2018-02-04T20:44:48.101Z,1019.1
2018-02-04T20:45:49.578Z,1019.0
2018-02-04T20:46:50.978Z,1019.0
2018-02-04T20:47:52.463Z,1019.0
2018-02-04T20:48:53.862Z,1019.0
2018-02-04T20:49:55.338Z,1019.0
2018-02-04T20:50:56.741Z,1019.1
2018-02-04T20:51:58.221Z,1019.1
2018-02-04T20:52:59.620Z,1019.1
2018-02-04T20:54:01.100Z,1019.1
2018-02-04T20:55:02.503Z,1019.1
2018-02-04T20:56:03.980Z,1019.1
2018-02-04T20:57:05.388Z,1019.1
2018-02-04T20:58:06.860Z,1019.1
2018-02-04T20:59:08.257Z,1019.1
2018-02-04T21:00:09.657Z,1019.1
2018-02-04T21:01:11.190Z,1019.2
2018-02-04T21:02:12.603Z,1019.2
2018-02-04T21:03:14.003Z,1019.1
2018-02-04T21:04:15.506Z,1019.2
2018-02-04T21:05:16.908Z,1019.1
2018-02-04T21:06:18.385Z,1019.2
2018-02-04T21:07:19.792Z,1019.2
2018-02-04T21:08:21.266Z,1019.2
2018-02-04T21:09:22.667Z,1019.2
2018-02-04T21:10:24.152Z,1019.2
2018-02-04T21:11:25.569Z,1019.2
2018-02-04T21:12:27.230Z,1019.3
2018-02-04T21:13:28.631Z,1019.3
2018-02-04T21:14:30.115Z,1019.3
2018-02-04T21:15:31.513Z,1019.2
2018-02-04T21:16:33.005Z,1019.3
2018-02-04T21:17:34.406Z,1019.2
2018-02-04T21:18:35.875Z,1019.3
2018-02-04T21:19:37.279Z,1019.3
2018-02-04T21:20:38.680Z,1019.3
2018-02-04T21:21:40.195Z,1019.3
2018-02-04T21:22:41.637Z,1019.3
2018-02-04T21:23:43.038Z,1019.3
2018-02-04T21:24:44.519Z,1019.3
2018-02-04T21:25:45.915Z,1019.3
2018-02-04T21:26:47.320Z,1019.4
2018-02-04T21:27:48.836Z,1019.3
2018-02-04T21:28:50.275Z,1019.3
2018-02-04T21:29:51.727Z,1019.3
2018-02-04T21:30:56.524Z,1019.3
2018-02-04T21:31:57.912Z,1019.3
2018-02-04T21:33:02.156Z,1019.4
2018-02-04T21:34:03.549Z,1019.4
2018-02-04T21:35:05.072Z,1019.4
2018-02-04T21:36:06.475Z,1019.4
2018-02-04T21:37:07.945Z,1019.4
2018-02-04T21:38:09.345Z,1019.4
2018-02-04T21:39:10.825Z,1019.3
2018-02-04T21:40:12.515Z,1019.4
2018-02-04T21:41:14.548Z,1019.4
2018-02-04T21:42:15.942Z,1019.4
2018-02-04T21:43:17.410Z,1019.4
2018-02-04T21:44:18.812Z,1019.4
2018-02-04T21:45:20.289Z,1019.5
2018-02-04T21:46:21.732Z,1019.4
2018-02-04T21:47:23.367Z,1019.4
2018-02-04T21:48:24.805Z,1019.4
2018-02-04T21:49:26.461Z,1019.4
2018-02-04T21:50:27.881Z,1019.4
2018-02-04T21:51:29.541Z,1019.5
2018-02-04T21:52:30.949Z,1019.5
2018-02-04T21:53:32.449Z,1019.4
2018-02-04T21:54:33.847Z,1019.5
2018-02-04T21:55:35.270Z,1019.5
2018-02-04T21:56:36.746Z,1019.4
2018-02-04T21:57:38.154Z,1019.5
2018-02-04T21:58:39.551Z,1019.6
2018-02-04T21:59:41.082Z,1019.5
2018-02-04T22:00:42.497Z,1019.6
2018-02-04T22:01:44.152Z,1019.6
2018-02-04T22:02:45.641Z,1019.6
2018-02-04T22:03:47.274Z,1019.6
2018-02-04T22:04:48.698Z,1019.6
2018-02-04T22:05:50.095Z,1019.6
2018-02-04T22:06:51.571Z,1019.6
2018-02-04T22:07:52.989Z,1019.7
2018-02-04T22:08:54.391Z,1019.7
2018-02-04T22:09:55.906Z,1019.6
2018-02-04T22:10:57.307Z,1019.7
2018-02-04T22:11:58.965Z,1019.7
2018-02-04T22:13:00.364Z,1019.7
2018-02-04T22:14:01.848Z,1019.7
2018-02-04T22:15:03.249Z,1019.7
2018-02-04T22:16:04.729Z,1019.7
2018-02-04T22:17:06.129Z,1019.7
2018-02-04T22:18:07.603Z,1019.7
2018-02-04T22:19:09.002Z,1019.7
2018-02-04T22:20:10.397Z,1019.7
2018-02-04T22:21:12.386Z,1019.7
2018-02-04T22:22:13.817Z,1019.7
2018-02-04T22:23:15.213Z,1019.8
2018-02-04T22:24:16.876Z,1019.7
2018-02-04T22:25:18.272Z,1019.7
2018-02-04T22:26:19.677Z,1019.7
2018-02-04T22:27:21.200Z,1019.7
2018-02-04T22:28:22.594Z,1019.7
2018-02-04T22:29:24.014Z,1019.7
2018-02-04T22:30:25.506Z,1019.7
2018-02-04T22:31:26.903Z,1019.7
2018-02-04T22:32:28.306Z,1019.7
2018-02-04T22:33:29.824Z,1019.7
2018-02-04T22:34:31.221Z,1019.7
2018-02-04T22:35:32.617Z,1019.7
2018-02-04T22:36:34.146Z,1019.7
2018-02-04T22:37:35.555Z,1019.8
2018-02-04T22:38:36.954Z,1019.7
2018-02-04T22:39:38.484Z,1019.7
2018-02-04T22:40:39.877Z,1019.7
2018-02-04T22:41:41.277Z,1019.7
2018-02-04T22:42:42.792Z,1019.8
2018-02-04T22:43:44.188Z,1019.8
2018-02-04T22:44:45.581Z,1019.7
2018-02-04T22:45:47.112Z,1019.8
2018-02-04T22:46:48.563Z,1019.8
2018-02-04T22:47:50.051Z,1019.7
2018-02-04T22:48:51.449Z,1019.8
2018-02-04T22:49:53.080Z,1019.8
2018-02-04T22:50:54.498Z,1019.8
2018-02-04T22:51:55.973Z,1019.8
2018-02-04T22:52:57.372Z,1019.8
2018-02-04T22:53:58.838Z,1019.8
2018-02-04T22:55:00.234Z,1019.8
2018-02-04T22:56:01.779Z,1019.8
2018-02-04T22:57:03.166Z,1019.8
2018-02-04T22:58:04.898Z,1019.8
2018-02-04T22:59:06.292Z,1019.9
2018-02-04T23:00:07.685Z,1019.8
2018-02-04T23:01:09.331Z,1019.8
2018-02-04T23:02:10.730Z,1019.9
2018-02-04T23:03:12.168Z,1019.9
2018-02-04T23:04:13.656Z,1019.9
2018-02-04T23:05:15.075Z,1019.9
2018-02-04T23:06:16.471Z,1019.9
2018-02-04T23:07:17.974Z,1019.9
2018-02-04T23:08:19.368Z,1019.9
2018-02-04T23:09:20.761Z,1019.9
2018-02-04T23:10:22.326Z,1020.0
2018-02-04T23:11:23.721Z,1020.0
2018-02-04T23:12:25.149Z,1019.9
2018-02-04T23:13:26.613Z,1019.9
2018-02-04T23:14:28.014Z,1020.0
2018-02-04T23:15:29.430Z,1020.0
2018-02-04T23:16:30.937Z,1020.0
2018-02-04T23:17:32.357Z,1020.0
2018-02-04T23:18:33.817Z,1020.0
2018-02-04T23:19:35.234Z,1020.0
2018-02-04T23:20:36.631Z,1020.0
2018-02-04T23:21:38.170Z,1020.0
2018-02-04T23:22:39.568Z,1020.0
2018-02-04T23:23:41.376Z,1020.0
2018-02-04T23:24:42.896Z,1019.9
2018-02-04T23:25:44.290Z,1020.0
2018-02-04T23:26:45.721Z,1019.9
2018-02-04T23:27:47.195Z,1020.0
2018-02-04T23:28:48.595Z,1019.9
2018-02-04T23:29:50.072Z,1019.9
2018-02-04T23:30:51.484Z,1019.9
2018-02-04T23:31:53.012Z,1019.9
2018-02-04T23:32:54.409Z,1020.0
2018-02-04T23:33:56.070Z,1019.9
2018-02-04T23:34:57.467Z,1020.0
2018-02-04T23:35:58.872Z,1020.0
2018-02-04T23:37:00.357Z,1019.9
2018-02-04T23:38:01.756Z,1019.9
2018-02-04T23:39:03.151Z,1020.0
2018-02-04T23:40:04.678Z,1020.0
2018-02-04T23:41:06.081Z,1019.9
2018-02-04T23:42:07.470Z,1019.9
2018-02-04T23:43:09.000Z,1019.9
2018-02-04T23:44:10.402Z,1019.9
2018-02-04T23:45:11.882Z,1019.9
2018-02-04T23:46:13.278Z,1019.9
2018-02-04T23:47:14.761Z,1019.9
2018-02-04T23:48:16.159Z,1019.9
2018-02-04T23:49:18.052Z,1019.9
2018-02-04T23:50:19.451Z,1019.9
2018-02-04T23:51:20.846Z,1020.0
2018-02-04T23:52:22.419Z,1019.9
2018-02-04T23:53:23.838Z,1019.9
2018-02-04T23:54:25.211Z,1019.9
2018-02-04T23:55:26.700Z,1019.9
2018-02-04T23:56:28.093Z,1019.9
2018-02-04T23:57:29.574Z,1019.9
2018-02-04T23:58:30.967Z,1019.9
2018-02-04T23:59:32.481Z,1019.9
